sensor_id;sensor_type;location;lat;lon;timestamp;P1;durP1;ratioP1;P2;durP2;ratioP2
14732;SDS011;7457;50.960;6.830;2023-07-20T00:01:46;6.28;;;3.67;;
14732;SDS011;7457;50.960;6.830;2023-07-20T00:04:12;5.25;;;4.05;;
14732;SDS011;7457;50.960;6.830;2023-07-20T00:06:38;5.05;;;3.72;;
14732;SDS011;7457;50.960;6.830;2023-07-20T00:09:05;5.32;;;3.53;;
14732;SDS011;7457;50.960;6.830;2023-07-20T00:11:31;9.90;;;4.07;;
14732;SDS011;7457;50.960;6.830;2023-07-20T00:14:00;5.72;;;3.55;;
14732;SDS011;7457;50.960;6.830;2023-07-20T00:16:26;9.18;;;3.28;;
14732;SDS011;7457;50.960;6.830;2023-07-20T00:18:51;6.40;;;3.60;;
14732;SDS011;7457;50.960;6.830;2023-07-20T00:21:17;6.45;;;4.05;;
14732;SDS011;7457;50.960;6.830;2023-07-20T00:23:43;7.18;;;3.97;;
14732;SDS011;7457;50.960;6.830;2023-07-20T00:26:08;4.88;;;3.78;;
14732;SDS011;7457;50.960;6.830;2023-07-20T00:28:34;4.57;;;3.40;;
14732;SDS011;7457;50.960;6.830;2023-07-20T00:31:00;4.28;;;3.40;;
14732;SDS011;7457;50.960;6.830;2023-07-20T00:33:25;4.70;;;3.60;;
14732;SDS011;7457;50.960;6.830;2023-07-20T00:35:51;8.57;;;3.38;;
14732;SDS011;7457;50.960;6.830;2023-07-20T00:38:17;5.90;;;3.88;;
14732;SDS011;7457;50.960;6.830;2023-07-20T00:40:43;6.50;;;4.15;;
14732;SDS011;7457;50.960;6.830;2023-07-20T00:43:08;6.35;;;3.65;;
14732;SDS011;7457;50.960;6.830;2023-07-20T00:45:34;6.60;;;3.72;;
14732;SDS011;7457;50.960;6.830;2023-07-20T00:48:01;4.80;;;3.75;;
14732;SDS011;7457;50.960;6.830;2023-07-20T00:50:28;7.80;;;3.58;;
14732;SDS011;7457;50.960;6.830;2023-07-20T00:52:55;5.75;;;3.70;;
14732;SDS011;7457;50.960;6.830;2023-07-20T00:55:22;6.97;;;4.40;;
14732;SDS011;7457;50.960;6.830;2023-07-20T00:57:49;4.90;;;3.67;;
14732;SDS011;7457;50.960;6.830;2023-07-20T01:00:15;4.93;;;3.83;;
14732;SDS011;7457;50.960;6.830;2023-07-20T01:02:41;6.00;;;4.30;;
14732;SDS011;7457;50.960;6.830;2023-07-20T01:05:07;6.85;;;3.67;;
14732;SDS011;7457;50.960;6.830;2023-07-20T01:07:37;5.47;;;3.97;;
14732;SDS011;7457;50.960;6.830;2023-07-20T01:10:16;7.93;;;4.28;;
14732;SDS011;7457;50.960;6.830;2023-07-20T01:12:54;7.13;;;3.83;;
14732;SDS011;7457;50.960;6.830;2023-07-20T01:15:20;7.03;;;4.22;;
14732;SDS011;7457;50.960;6.830;2023-07-20T01:17:46;5.47;;;4.32;;
14732;SDS011;7457;50.960;6.830;2023-07-20T01:20:15;8.48;;;4.05;;
14732;SDS011;7457;50.960;6.830;2023-07-20T01:31:57;5.93;;;3.70;;
14732;SDS011;7457;50.960;6.830;2023-07-20T01:34:24;7.70;;;4.35;;
14732;SDS011;7457;50.960;6.830;2023-07-20T01:36:52;5.50;;;3.55;;
14732;SDS011;7457;50.960;6.830;2023-07-20T01:39:19;6.10;;;3.75;;
14732;SDS011;7457;50.960;6.830;2023-07-20T01:41:46;6.63;;;4.05;;
14732;SDS011;7457;50.960;6.830;2023-07-20T01:44:12;5.22;;;3.90;;
14732;SDS011;7457;50.960;6.830;2023-07-20T01:46:38;5.70;;;3.45;;
14732;SDS011;7457;50.960;6.830;2023-07-20T01:49:04;4.97;;;3.70;;
14732;SDS011;7457;50.960;6.830;2023-07-20T01:51:29;5.20;;;3.17;;
14732;SDS011;7457;50.960;6.830;2023-07-20T01:53:55;5.32;;;3.75;;
14732;SDS011;7457;50.960;6.830;2023-07-20T01:56:20;4.97;;;3.83;;
14732;SDS011;7457;50.960;6.830;2023-07-20T01:58:46;5.63;;;3.53;;
14732;SDS011;7457;50.960;6.830;2023-07-20T02:01:12;6.68;;;3.60;;
14732;SDS011;7457;50.960;6.830;2023-07-20T02:03:37;7.43;;;3.90;;
14732;SDS011;7457;50.960;6.830;2023-07-20T02:06:03;6.20;;;3.70;;
14732;SDS011;7457;50.960;6.830;2023-07-20T02:08:28;9.63;;;4.13;;
14732;SDS011;7457;50.960;6.830;2023-07-20T02:10:54;6.28;;;4.18;;
14732;SDS011;7457;50.960;6.830;2023-07-20T02:13:20;6.00;;;3.97;;
14732;SDS011;7457;50.960;6.830;2023-07-20T02:15:45;6.05;;;4.35;;
14732;SDS011;7457;50.960;6.830;2023-07-20T02:18:14;5.55;;;4.32;;
14732;SDS011;7457;50.960;6.830;2023-07-20T02:20:40;8.00;;;4.50;;
14732;SDS011;7457;50.960;6.830;2023-07-20T02:23:06;7.47;;;4.57;;
14732;SDS011;7457;50.960;6.830;2023-07-20T02:25:32;5.60;;;4.28;;
14732;SDS011;7457;50.960;6.830;2023-07-20T02:27:58;7.13;;;4.93;;
14732;SDS011;7457;50.960;6.830;2023-07-20T02:30:23;6.90;;;4.80;;
14732;SDS011;7457;50.960;6.830;2023-07-20T02:32:49;7.57;;;4.85;;
14732;SDS011;7457;50.960;6.830;2023-07-20T02:35:15;10.98;;;5.03;;
14732;SDS011;7457;50.960;6.830;2023-07-20T02:37:41;8.98;;;5.25;;
14732;SDS011;7457;50.960;6.830;2023-07-20T02:40:07;5.72;;;4.45;;
14732;SDS011;7457;50.960;6.830;2023-07-20T02:42:34;8.90;;;5.85;;
14732;SDS011;7457;50.960;6.830;2023-07-20T02:45:00;8.65;;;5.00;;
14732;SDS011;7457;50.960;6.830;2023-07-20T02:47:26;8.65;;;5.18;;
14732;SDS011;7457;50.960;6.830;2023-07-20T02:49:52;7.05;;;4.90;;
14732;SDS011;7457;50.960;6.830;2023-07-20T02:52:19;7.13;;;5.00;;
14732;SDS011;7457;50.960;6.830;2023-07-20T02:54:44;7.97;;;5.13;;
14732;SDS011;7457;50.960;6.830;2023-07-20T02:57:10;8.50;;;5.25;;
14732;SDS011;7457;50.960;6.830;2023-07-20T02:59:36;9.43;;;5.30;;
14732;SDS011;7457;50.960;6.830;2023-07-20T03:02:01;11.82;;;6.20;;
14732;SDS011;7457;50.960;6.830;2023-07-20T03:04:27;13.23;;;5.43;;
14732;SDS011;7457;50.960;6.830;2023-07-20T03:06:53;10.13;;;5.38;;
14732;SDS011;7457;50.960;6.830;2023-07-20T03:09:18;9.35;;;5.40;;
14732;SDS011;7457;50.960;6.830;2023-07-20T03:11:44;10.98;;;5.55;;
14732;SDS011;7457;50.960;6.830;2023-07-20T03:14:10;9.45;;;4.88;;
14732;SDS011;7457;50.960;6.830;2023-07-20T03:16:36;9.98;;;5.85;;
14732;SDS011;7457;50.960;6.830;2023-07-20T03:19:02;9.40;;;5.50;;
14732;SDS011;7457;50.960;6.830;2023-07-20T03:21:28;10.23;;;5.07;;
14732;SDS011;7457;50.960;6.830;2023-07-20T03:23:54;9.40;;;5.32;;
14732;SDS011;7457;50.960;6.830;2023-07-20T03:26:20;7.15;;;5.00;;
14732;SDS011;7457;50.960;6.830;2023-07-20T03:28:45;9.50;;;5.57;;
14732;SDS011;7457;50.960;6.830;2023-07-20T03:31:11;9.57;;;4.95;;
14732;SDS011;7457;50.960;6.830;2023-07-20T03:33:37;7.03;;;5.13;;
14732;SDS011;7457;50.960;6.830;2023-07-20T03:36:02;10.23;;;5.20;;
14732;SDS011;7457;50.960;6.830;2023-07-20T03:38:28;8.75;;;4.75;;
14732;SDS011;7457;50.960;6.830;2023-07-20T03:43:22;9.25;;;4.47;;
14732;SDS011;7457;50.960;6.830;2023-07-20T03:45:48;6.75;;;4.72;;
14732;SDS011;7457;50.960;6.830;2023-07-20T03:48:18;6.15;;;4.43;;
14732;SDS011;7457;50.960;6.830;2023-07-20T03:50:45;7.85;;;4.40;;
14732;SDS011;7457;50.960;6.830;2023-07-20T03:53:13;6.13;;;4.30;;
14732;SDS011;7457;50.960;6.830;2023-07-20T03:55:39;7.97;;;4.28;;
14732;SDS011;7457;50.960;6.830;2023-07-20T03:58:06;11.60;;;4.32;;
14732;SDS011;7457;50.960;6.830;2023-07-20T04:00:33;9.00;;;4.55;;
14732;SDS011;7457;50.960;6.830;2023-07-20T04:02:59;7.90;;;4.43;;
14732;SDS011;7457;50.960;6.830;2023-07-20T04:05:25;8.60;;;4.32;;
14732;SDS011;7457;50.960;6.830;2023-07-20T04:07:51;8.10;;;4.55;;
14732;SDS011;7457;50.960;6.830;2023-07-20T04:10:17;7.43;;;4.07;;
14732;SDS011;7457;50.960;6.830;2023-07-20T04:12:44;7.95;;;3.92;;
14732;SDS011;7457;50.960;6.830;2023-07-20T04:15:10;12.90;;;4.65;;
14732;SDS011;7457;50.960;6.830;2023-07-20T04:17:35;7.10;;;4.35;;
14732;SDS011;7457;50.960;6.830;2023-07-20T04:20:01;8.57;;;4.03;;
14732;SDS011;7457;50.960;6.830;2023-07-20T04:22:28;11.25;;;4.50;;
14732;SDS011;7457;50.960;6.830;2023-07-20T04:24:53;8.23;;;4.22;;
14732;SDS011;7457;50.960;6.830;2023-07-20T04:27:19;9.32;;;4.05;;
14732;SDS011;7457;50.960;6.830;2023-07-20T04:29:45;7.45;;;3.72;;
14732;SDS011;7457;50.960;6.830;2023-07-20T04:32:10;7.90;;;3.95;;
14732;SDS011;7457;50.960;6.830;2023-07-20T04:34:36;6.00;;;3.90;;
14732;SDS011;7457;50.960;6.830;2023-07-20T04:37:02;11.45;;;4.85;;
14732;SDS011;7457;50.960;6.830;2023-07-20T04:39:29;6.15;;;4.40;;
14732;SDS011;7457;50.960;6.830;2023-07-20T04:41:55;11.93;;;4.90;;
14732;SDS011;7457;50.960;6.830;2023-07-20T04:44:21;10.10;;;5.05;;
14732;SDS011;7457;50.960;6.830;2023-07-20T04:46:47;11.60;;;5.00;;
14732;SDS011;7457;50.960;6.830;2023-07-20T04:49:12;14.27;;;5.00;;
14732;SDS011;7457;50.960;6.830;2023-07-20T04:51:38;7.55;;;4.50;;
14732;SDS011;7457;50.960;6.830;2023-07-20T04:54:04;7.60;;;4.97;;
14732;SDS011;7457;50.960;6.830;2023-07-20T04:56:30;10.20;;;5.03;;
14732;SDS011;7457;50.960;6.830;2023-07-20T04:58:56;12.93;;;5.22;;
14732;SDS011;7457;50.960;6.830;2023-07-20T05:01:22;9.00;;;5.65;;
14732;SDS011;7457;50.960;6.830;2023-07-20T05:03:48;8.73;;;5.15;;
14732;SDS011;7457;50.960;6.830;2023-07-20T05:06:14;13.13;;;5.55;;
14732;SDS011;7457;50.960;6.830;2023-07-20T05:08:40;10.75;;;5.15;;
14732;SDS011;7457;50.960;6.830;2023-07-20T05:11:06;11.35;;;4.90;;
14732;SDS011;7457;50.960;6.830;2023-07-20T05:13:32;11.10;;;4.93;;
14732;SDS011;7457;50.960;6.830;2023-07-20T05:15:58;8.18;;;5.25;;
14732;SDS011;7457;50.960;6.830;2023-07-20T05:18:24;8.23;;;4.85;;
14732;SDS011;7457;50.960;6.830;2023-07-20T05:20:50;8.52;;;4.65;;
14732;SDS011;7457;50.960;6.830;2023-07-20T05:23:19;6.65;;;5.20;;
14732;SDS011;7457;50.960;6.830;2023-07-20T05:25:45;9.05;;;6.10;;
14732;SDS011;7457;50.960;6.830;2023-07-20T05:28:10;9.75;;;6.22;;
14732;SDS011;7457;50.960;6.830;2023-07-20T05:30:36;8.55;;;6.50;;
14732;SDS011;7457;50.960;6.830;2023-07-20T05:33:02;13.10;;;5.78;;
14732;SDS011;7457;50.960;6.830;2023-07-20T05:35:28;12.25;;;6.25;;
14732;SDS011;7457;50.960;6.830;2023-07-20T05:37:53;10.75;;;5.63;;
14732;SDS011;7457;50.960;6.830;2023-07-20T05:53:46;7.72;;;5.70;;
14732;SDS011;7457;50.960;6.830;2023-07-20T05:56:15;11.57;;;6.03;;
14732;SDS011;7457;50.960;6.830;2023-07-20T05:58:42;9.60;;;6.25;;
14732;SDS011;7457;50.960;6.830;2023-07-20T06:01:19;11.07;;;6.82;;
14732;SDS011;7457;50.960;6.830;2023-07-20T06:06:39;11.05;;;6.45;;
14732;SDS011;7457;50.960;6.830;2023-07-20T06:09:04;10.95;;;7.78;;
14732;SDS011;7457;50.960;6.830;2023-07-20T06:11:32;10.88;;;7.68;;
14732;SDS011;7457;50.960;6.830;2023-07-20T06:13:58;11.13;;;7.15;;
14732;SDS011;7457;50.960;6.830;2023-07-20T06:16:30;12.20;;;8.68;;
14732;SDS011;7457;50.960;6.830;2023-07-20T06:18:56;14.57;;;8.45;;
14732;SDS011;7457;50.960;6.830;2023-07-20T06:21:22;12.27;;;8.15;;
14732;SDS011;7457;50.960;6.830;2023-07-20T06:23:48;13.60;;;7.95;;
14732;SDS011;7457;50.960;6.830;2023-07-20T06:26:13;10.23;;;8.45;;
14732;SDS011;7457;50.960;6.830;2023-07-20T06:28:39;12.52;;;8.68;;
14732;SDS011;7457;50.960;6.830;2023-07-20T06:31:04;10.18;;;8.45;;
14732;SDS011;7457;50.960;6.830;2023-07-20T06:33:30;12.80;;;8.60;;
14732;SDS011;7457;50.960;6.830;2023-07-20T06:35:56;14.07;;;10.00;;
14732;SDS011;7457;50.960;6.830;2023-07-20T06:38:22;11.43;;;9.02;;
14732;SDS011;7457;50.960;6.830;2023-07-20T06:40:51;10.90;;;8.40;;
14732;SDS011;7457;50.960;6.830;2023-07-20T06:43:17;13.57;;;9.27;;
14732;SDS011;7457;50.960;6.830;2023-07-20T06:45:43;17.35;;;8.57;;
14732;SDS011;7457;50.960;6.830;2023-07-20T06:48:09;11.02;;;8.70;;
14732;SDS011;7457;50.960;6.830;2023-07-20T06:50:35;13.50;;;9.25;;
14732;SDS011;7457;50.960;6.830;2023-07-20T06:53:01;9.73;;;8.38;;
14732;SDS011;7457;50.960;6.830;2023-07-20T06:55:29;10.63;;;7.65;;
14732;SDS011;7457;50.960;6.830;2023-07-20T06:57:54;12.50;;;9.52;;
14732;SDS011;7457;50.960;6.830;2023-07-20T07:00:20;11.25;;;9.23;;
14732;SDS011;7457;50.960;6.830;2023-07-20T07:02:46;10.27;;;9.00;;
14732;SDS011;7457;50.960;6.830;2023-07-20T07:05:11;9.77;;;8.63;;
14732;SDS011;7457;50.960;6.830;2023-07-20T07:07:39;12.18;;;7.75;;
14732;SDS011;7457;50.960;6.830;2023-07-20T07:10:05;8.15;;;7.35;;
14732;SDS011;7457;50.960;6.830;2023-07-20T07:12:31;9.63;;;7.60;;
14732;SDS011;7457;50.960;6.830;2023-07-20T07:14:57;11.70;;;7.78;;
14732;SDS011;7457;50.960;6.830;2023-07-20T07:17:23;12.68;;;8.50;;
14732;SDS011;7457;50.960;6.830;2023-07-20T07:19:48;8.50;;;7.53;;
14732;SDS011;7457;50.960;6.830;2023-07-20T07:22:14;8.63;;;7.55;;
14732;SDS011;7457;50.960;6.830;2023-07-20T07:24:40;11.00;;;7.15;;
14732;SDS011;7457;50.960;6.830;2023-07-20T07:27:07;9.63;;;6.50;;
14732;SDS011;7457;50.960;6.830;2023-07-20T07:29:33;9.85;;;7.18;;
14732;SDS011;7457;50.960;6.830;2023-07-20T07:31:59;10.90;;;6.90;;
14732;SDS011;7457;50.960;6.830;2023-07-20T07:34:25;9.02;;;7.25;;
14732;SDS011;7457;50.960;6.830;2023-07-20T07:36:51;9.20;;;7.18;;
14732;SDS011;7457;50.960;6.830;2023-07-20T07:39:17;7.57;;;5.88;;
14732;SDS011;7457;50.960;6.830;2023-07-20T07:41:42;6.28;;;4.25;;
14732;SDS011;7457;50.960;6.830;2023-07-20T07:44:08;7.28;;;4.72;;
14732;SDS011;7457;50.960;6.830;2023-07-20T07:46:33;7.30;;;5.35;;
14732;SDS011;7457;50.960;6.830;2023-07-20T07:48:59;5.90;;;5.30;;
14732;SDS011;7457;50.960;6.830;2023-07-20T07:51:25;6.93;;;5.70;;
14732;SDS011;7457;50.960;6.830;2023-07-20T07:53:52;11.07;;;5.78;;
14732;SDS011;7457;50.960;6.830;2023-07-20T07:56:18;9.15;;;6.10;;
14732;SDS011;7457;50.960;6.830;2023-07-20T07:58:47;7.78;;;5.53;;
14732;SDS011;7457;50.960;6.830;2023-07-20T08:01:14;13.85;;;7.05;;
14732;SDS011;7457;50.960;6.830;2023-07-20T08:03:39;9.75;;;6.43;;
14732;SDS011;7457;50.960;6.830;2023-07-20T08:06:05;8.48;;;5.28;;
14732;SDS011;7457;50.960;6.830;2023-07-20T08:08:31;8.05;;;5.72;;
14732;SDS011;7457;50.960;6.830;2023-07-20T08:10:57;8.55;;;6.72;;
14732;SDS011;7457;50.960;6.830;2023-07-20T08:13:24;8.88;;;6.97;;
14732;SDS011;7457;50.960;6.830;2023-07-20T08:15:50;7.07;;;6.35;;
14732;SDS011;7457;50.960;6.830;2023-07-20T08:18:19;6.95;;;4.00;;
14732;SDS011;7457;50.960;6.830;2023-07-20T08:20:45;4.30;;;3.78;;
14732;SDS011;7457;50.960;6.830;2023-07-20T08:23:11;4.00;;;3.58;;
14732;SDS011;7457;50.960;6.830;2023-07-20T08:25:37;4.25;;;3.40;;
14732;SDS011;7457;50.960;6.830;2023-07-20T08:28:04;4.30;;;3.88;;
14732;SDS011;7457;50.960;6.830;2023-07-20T08:30:48;4.75;;;3.67;;
14732;SDS011;7457;50.960;6.830;2023-07-20T08:33:15;7.63;;;3.58;;
14732;SDS011;7457;50.960;6.830;2023-07-20T08:35:43;5.38;;;3.50;;
14732;SDS011;7457;50.960;6.830;2023-07-20T08:38:08;4.40;;;3.97;;
14732;SDS011;7457;50.960;6.830;2023-07-20T08:40:38;4.32;;;3.22;;
14732;SDS011;7457;50.960;6.830;2023-07-20T08:43:05;5.90;;;3.80;;
14732;SDS011;7457;50.960;6.830;2023-07-20T08:45:34;9.23;;;3.83;;
14732;SDS011;7457;50.960;6.830;2023-07-20T08:48:01;5.93;;;3.40;;
14732;SDS011;7457;50.960;6.830;2023-07-20T08:50:30;5.07;;;2.85;;
14732;SDS011;7457;50.960;6.830;2023-07-20T08:52:57;5.57;;;3.35;;
14732;SDS011;7457;50.960;6.830;2023-07-20T08:55:24;4.47;;;3.80;;
14732;SDS011;7457;50.960;6.830;2023-07-20T08:57:52;3.60;;;2.67;;
14732;SDS011;7457;50.960;6.830;2023-07-20T09:00:19;4.25;;;2.50;;
14732;SDS011;7457;50.960;6.830;2023-07-20T09:02:46;4.82;;;3.40;;
14732;SDS011;7457;50.960;6.830;2023-07-20T09:05:17;3.40;;;2.92;;
14732;SDS011;7457;50.960;6.830;2023-07-20T09:07:43;5.70;;;3.22;;
14732;SDS011;7457;50.960;6.830;2023-07-20T09:10:09;3.33;;;2.78;;
14732;SDS011;7457;50.960;6.830;2023-07-20T09:12:37;5.22;;;2.58;;
14732;SDS011;7457;50.960;6.830;2023-07-20T09:15:04;2.65;;;2.10;;
14732;SDS011;7457;50.960;6.830;2023-07-20T09:17:31;4.47;;;1.92;;
14732;SDS011;7457;50.960;6.830;2023-07-20T09:19:57;3.45;;;2.50;;
14732;SDS011;7457;50.960;6.830;2023-07-20T09:22:29;3.17;;;2.22;;
14732;SDS011;7457;50.960;6.830;2023-07-20T09:24:55;4.57;;;2.20;;
14732;SDS011;7457;50.960;6.830;2023-07-20T09:27:21;1.90;;;1.70;;
14732;SDS011;7457;50.960;6.830;2023-07-20T09:29:50;2.17;;;1.83;;
14732;SDS011;7457;50.960;6.830;2023-07-20T09:32:19;3.47;;;2.20;;
14732;SDS011;7457;50.960;6.830;2023-07-20T09:34:46;3.05;;;2.08;;
14732;SDS011;7457;50.960;6.830;2023-07-20T09:37:12;3.70;;;2.20;;
14732;SDS011;7457;50.960;6.830;2023-07-20T09:39:44;3.97;;;1.90;;
14732;SDS011;7457;50.960;6.830;2023-07-20T09:42:13;4.80;;;2.80;;
14732;SDS011;7457;50.960;6.830;2023-07-20T09:44:40;5.22;;;2.75;;
14732;SDS011;7457;50.960;6.830;2023-07-20T09:47:08;4.80;;;2.50;;
14732;SDS011;7457;50.960;6.830;2023-07-20T09:49:38;3.95;;;2.65;;
14732;SDS011;7457;50.960;6.830;2023-07-20T09:52:06;3.50;;;2.10;;
14732;SDS011;7457;50.960;6.830;2023-07-20T09:54:34;3.88;;;2.05;;
14732;SDS011;7457;50.960;6.830;2023-07-20T09:57:03;5.95;;;2.08;;
14732;SDS011;7457;50.960;6.830;2023-07-20T09:59:29;2.42;;;2.05;;
14732;SDS011;7457;50.960;6.830;2023-07-20T10:01:56;1.88;;;1.60;;
14732;SDS011;7457;50.960;6.830;2023-07-20T10:04:26;2.22;;;1.90;;
14732;SDS011;7457;50.960;6.830;2023-07-20T10:06:54;2.03;;;1.75;;
14732;SDS011;7457;50.960;6.830;2023-07-20T10:09:21;3.35;;;1.70;;
14732;SDS011;7457;50.960;6.830;2023-07-20T10:11:52;3.20;;;1.50;;
14732;SDS011;7457;50.960;6.830;2023-07-20T10:14:21;4.78;;;1.80;;
14732;SDS011;7457;50.960;6.830;2023-07-20T10:16:51;3.55;;;1.60;;
14732;SDS011;7457;50.960;6.830;2023-07-20T10:19:23;2.58;;;1.80;;
14732;SDS011;7457;50.960;6.830;2023-07-20T10:22:00;3.53;;;2.65;;
14732;SDS011;7457;50.960;6.830;2023-07-20T10:24:32;2.53;;;1.88;;
14732;SDS011;7457;50.960;6.830;2023-07-20T10:26:58;2.83;;;2.03;;
14732;SDS011;7457;50.960;6.830;2023-07-20T10:29:26;1.73;;;1.58;;
14732;SDS011;7457;50.960;6.830;2023-07-20T10:31:53;2.50;;;1.75;;
14732;SDS011;7457;50.960;6.830;2023-07-20T10:34:20;2.13;;;1.40;;
14732;SDS011;7457;50.960;6.830;2023-07-20T10:36:46;3.90;;;1.90;;
14732;SDS011;7457;50.960;6.830;2023-07-20T10:39:23;2.72;;;1.67;;
14732;SDS011;7457;50.960;6.830;2023-07-20T10:41:59;2.67;;;1.63;;
14732;SDS011;7457;50.960;6.830;2023-07-20T10:44:37;3.13;;;2.30;;
14732;SDS011;7457;50.960;6.830;2023-07-20T10:47:09;4.15;;;1.90;;
14732;SDS011;7457;50.960;6.830;2023-07-20T10:49:57;1.67;;;1.45;;
14732;SDS011;7457;50.960;6.830;2023-07-20T10:52:23;4.15;;;1.30;;
14732;SDS011;7457;50.960;6.830;2023-07-20T10:54:49;3.45;;;1.40;;
14732;SDS011;7457;50.960;6.830;2023-07-20T10:57:21;1.98;;;1.13;;
14732;SDS011;7457;50.960;6.830;2023-07-20T11:02:54;2.10;;;1.17;;
14732;SDS011;7457;50.960;6.830;2023-07-20T11:05:39;4.10;;;1.70;;
14732;SDS011;7457;50.960;6.830;2023-07-20T11:08:06;3.47;;;1.40;;
14732;SDS011;7457;50.960;6.830;2023-07-20T11:10:36;3.70;;;1.40;;
14732;SDS011;7457;50.960;6.830;2023-07-20T11:18:21;7.70;;;1.90;;
14732;SDS011;7457;50.960;6.830;2023-07-20T11:20:51;3.42;;;1.65;;
14732;SDS011;7457;50.960;6.830;2023-07-20T11:23:19;3.60;;;1.42;;
14732;SDS011;7457;50.960;6.830;2023-07-20T11:25:45;6.95;;;2.03;;
14732;SDS011;7457;50.960;6.830;2023-07-20T11:28:11;3.53;;;2.22;;
14732;SDS011;7457;50.960;6.830;2023-07-20T11:30:37;2.42;;;2.20;;
14732;SDS011;7457;50.960;6.830;2023-07-20T11:33:04;4.20;;;1.73;;
14732;SDS011;7457;50.960;6.830;2023-07-20T11:35:30;2.70;;;1.70;;
14732;SDS011;7457;50.960;6.830;2023-07-20T11:37:56;5.43;;;1.80;;
14732;SDS011;7457;50.960;6.830;2023-07-20T11:40:22;2.05;;;1.60;;
14732;SDS011;7457;50.960;6.830;2023-07-20T11:42:50;3.10;;;1.40;;
14732;SDS011;7457;50.960;6.830;2023-07-20T11:45:16;3.15;;;1.40;;
14732;SDS011;7457;50.960;6.830;2023-07-20T11:47:43;1.60;;;1.30;;
14732;SDS011;7457;50.960;6.830;2023-07-20T11:50:09;3.75;;;1.60;;
14732;SDS011;7457;50.960;6.830;2023-07-20T11:52:35;1.85;;;1.17;;
14732;SDS011;7457;50.960;6.830;2023-07-20T11:55:02;3.53;;;1.65;;
14732;SDS011;7457;50.960;6.830;2023-07-20T11:57:29;1.58;;;1.45;;
14732;SDS011;7457;50.960;6.830;2023-07-20T11:59:55;2.15;;;1.33;;
14732;SDS011;7457;50.960;6.830;2023-07-20T12:02:29;3.40;;;1.73;;
14732;SDS011;7457;50.960;6.830;2023-07-20T12:04:55;3.53;;;1.40;;
14732;SDS011;7457;50.960;6.830;2023-07-20T12:07:22;2.50;;;1.20;;
14732;SDS011;7457;50.960;6.830;2023-07-20T12:12:33;4.53;;;1.52;;
14732;SDS011;7457;50.960;6.830;2023-07-20T12:18:00;3.30;;;1.38;;
14732;SDS011;7457;50.960;6.830;2023-07-20T12:23:09;3.70;;;2.75;;
14732;SDS011;7457;50.960;6.830;2023-07-20T12:28:08;2.40;;;1.67;;
14732;SDS011;7457;50.960;6.830;2023-07-20T12:30:36;3.20;;;2.40;;
14732;SDS011;7457;50.960;6.830;2023-07-20T12:33:03;2.17;;;1.77;;
14732;SDS011;7457;50.960;6.830;2023-07-20T12:35:29;2.92;;;1.85;;
14732;SDS011;7457;50.960;6.830;2023-07-20T12:37:58;2.63;;;1.77;;
14732;SDS011;7457;50.960;6.830;2023-07-20T12:40:24;2.65;;;1.50;;
14732;SDS011;7457;50.960;6.830;2023-07-20T12:42:50;2.70;;;1.52;;
14732;SDS011;7457;50.960;6.830;2023-07-20T13:01:32;2.10;;;1.67;;
14732;SDS011;7457;50.960;6.830;2023-07-20T13:03:57;1.98;;;1.50;;
14732;SDS011;7457;50.960;6.830;2023-07-20T13:06:33;1.77;;;1.63;;
14732;SDS011;7457;50.960;6.830;2023-07-20T13:09:06;2.78;;;1.60;;
14732;SDS011;7457;50.960;6.830;2023-07-20T13:11:32;5.28;;;2.03;;
14732;SDS011;7457;50.960;6.830;2023-07-20T13:13:57;8.50;;;2.75;;
14732;SDS011;7457;50.960;6.830;2023-07-20T13:16:26;4.47;;;1.45;;
14732;SDS011;7457;50.960;6.830;2023-07-20T13:18:52;1.65;;;1.25;;
14732;SDS011;7457;50.960;6.830;2023-07-20T13:21:18;3.05;;;1.83;;
14732;SDS011;7457;50.960;6.830;2023-07-20T13:23:47;2.90;;;1.73;;
14732;SDS011;7457;50.960;6.830;2023-07-20T13:26:13;5.15;;;1.55;;
14732;SDS011;7457;50.960;6.830;2023-07-20T13:28:42;5.10;;;1.80;;
14732;SDS011;7457;50.960;6.830;2023-07-20T13:31:07;2.63;;;1.88;;
14732;SDS011;7457;50.960;6.830;2023-07-20T13:33:35;5.60;;;1.88;;
14732;SDS011;7457;50.960;6.830;2023-07-20T13:36:01;5.32;;;1.45;;
14732;SDS011;7457;50.960;6.830;2023-07-20T13:38:26;1.92;;;1.40;;
14732;SDS011;7457;50.960;6.830;2023-07-20T13:40:52;2.35;;;1.60;;
14732;SDS011;7457;50.960;6.830;2023-07-20T13:43:18;5.07;;;1.90;;
14732;SDS011;7457;50.960;6.830;2023-07-20T13:45:43;5.00;;;2.55;;
14732;SDS011;7457;50.960;6.830;2023-07-20T13:48:09;4.05;;;1.63;;
14732;SDS011;7457;50.960;6.830;2023-07-20T13:50:35;6.45;;;1.35;;
14732;SDS011;7457;50.960;6.830;2023-07-20T13:53:00;3.33;;;1.48;;
14732;SDS011;7457;50.960;6.830;2023-07-20T13:55:28;1.63;;;1.52;;
14732;SDS011;7457;50.960;6.830;2023-07-20T13:57:56;1.45;;;1.35;;
14732;SDS011;7457;50.960;6.830;2023-07-20T14:00:21;1.67;;;1.27;;
14732;SDS011;7457;50.960;6.830;2023-07-20T14:02:47;1.90;;;1.42;;
14732;SDS011;7457;50.960;6.830;2023-07-20T14:05:12;1.85;;;1.58;;
14732;SDS011;7457;50.960;6.830;2023-07-20T14:07:40;1.73;;;1.50;;
14732;SDS011;7457;50.960;6.830;2023-07-20T14:10:07;1.50;;;1.40;;
14732;SDS011;7457;50.960;6.830;2023-07-20T14:12:32;1.60;;;1.50;;
14732;SDS011;7457;50.960;6.830;2023-07-20T14:14:58;2.42;;;1.63;;
14732;SDS011;7457;50.960;6.830;2023-07-20T14:17:24;2.92;;;1.35;;
14732;SDS011;7457;50.960;6.830;2023-07-20T14:19:50;7.68;;;4.07;;
14732;SDS011;7457;50.960;6.830;2023-07-20T14:22:16;2.72;;;1.42;;
14732;SDS011;7457;50.960;6.830;2023-07-20T14:24:41;2.20;;;1.58;;
14732;SDS011;7457;50.960;6.830;2023-07-20T14:27:07;3.17;;;1.73;;
14732;SDS011;7457;50.960;6.830;2023-07-20T14:29:33;1.88;;;1.50;;
14732;SDS011;7457;50.960;6.830;2023-07-20T14:32:01;2.45;;;1.27;;
14732;SDS011;7457;50.960;6.830;2023-07-20T14:34:28;3.63;;;1.25;;
14732;SDS011;7457;50.960;6.830;2023-07-20T14:36:54;3.17;;;1.30;;
14732;SDS011;7457;50.960;6.830;2023-07-20T14:39:20;3.03;;;1.50;;
14732;SDS011;7457;50.960;6.830;2023-07-20T14:41:45;1.20;;;1.10;;
14732;SDS011;7457;50.960;6.830;2023-07-20T14:44:11;2.58;;;1.55;;
14732;SDS011;7457;50.960;6.830;2023-07-20T14:46:37;4.80;;;1.67;;
14732;SDS011;7457;50.960;6.830;2023-07-20T14:49:02;2.33;;;1.70;;
14732;SDS011;7457;50.960;6.830;2023-07-20T14:51:28;1.88;;;1.35;;
14732;SDS011;7457;50.960;6.830;2023-07-20T14:53:58;1.40;;;1.30;;
14732;SDS011;7457;50.960;6.830;2023-07-20T14:56:25;4.43;;;1.25;;
14732;SDS011;7457;50.960;6.830;2023-07-20T14:58:51;2.05;;;1.30;;
14732;SDS011;7457;50.960;6.830;2023-07-20T15:01:17;4.90;;;1.40;;
14732;SDS011;7457;50.960;6.830;2023-07-20T15:03:43;5.75;;;1.52;;
14732;SDS011;7457;50.960;6.830;2023-07-20T15:06:11;1.52;;;1.20;;
14732;SDS011;7457;50.960;6.830;2023-07-20T15:08:37;3.00;;;1.42;;
14732;SDS011;7457;50.960;6.830;2023-07-20T15:11:03;1.60;;;1.20;;
14732;SDS011;7457;50.960;6.830;2023-07-20T15:13:28;3.15;;;1.40;;
14732;SDS011;7457;50.960;6.830;2023-07-20T15:15:54;3.67;;;2.35;;
14732;SDS011;7457;50.960;6.830;2023-07-20T15:18:20;2.00;;;1.70;;
14732;SDS011;7457;50.960;6.830;2023-07-20T15:20:45;2.70;;;1.60;;
14732;SDS011;7457;50.960;6.830;2023-07-20T15:23:13;4.63;;;1.85;;
14732;SDS011;7457;50.960;6.830;2023-07-20T15:25:38;2.67;;;1.10;;
14732;SDS011;7457;50.960;6.830;2023-07-20T15:28:04;3.03;;;1.50;;
14732;SDS011;7457;50.960;6.830;2023-07-20T15:30:30;4.30;;;1.65;;
14732;SDS011;7457;50.960;6.830;2023-07-20T15:32:55;2.28;;;1.20;;
14732;SDS011;7457;50.960;6.830;2023-07-20T15:35:22;3.95;;;1.25;;
14732;SDS011;7457;50.960;6.830;2023-07-20T15:37:48;1.83;;;1.10;;
14732;SDS011;7457;50.960;6.830;2023-07-20T15:40:14;1.58;;;1.13;;
14732;SDS011;7457;50.960;6.830;2023-07-20T15:42:39;1.55;;;0.90;;
14732;SDS011;7457;50.960;6.830;2023-07-20T15:45:05;8.63;;;1.95;;
14732;SDS011;7457;50.960;6.830;2023-07-20T15:47:31;3.15;;;1.30;;
14732;SDS011;7457;50.960;6.830;2023-07-20T15:49:57;4.07;;;1.25;;
14732;SDS011;7457;50.960;6.830;2023-07-20T15:52:23;1.60;;;1.08;;
14732;SDS011;7457;50.960;6.830;2023-07-20T15:54:48;1.88;;;1.30;;
14732;SDS011;7457;50.960;6.830;2023-07-20T15:57:18;1.65;;;1.00;;
14732;SDS011;7457;50.960;6.830;2023-07-20T15:59:44;2.10;;;1.15;;
14732;SDS011;7457;50.960;6.830;2023-07-20T16:02:10;4.75;;;2.20;;